createdAt,value
2018-05-15T00:01:48.549Z,15.67
2018-05-15T00:04:14.548Z,16.23
2018-05-15T00:06:40.540Z,16.27
2018-05-15T00:09:06.568Z,16.33
2018-05-15T00:11:32.636Z,15.10
2018-05-15T00:13:58.721Z,17.23
2018-05-15T00:16:24.728Z,15.83
2018-05-15T00:18:50.761Z,16.10
2018-05-15T00:21:16.784Z,15.53
2018-05-15T00:23:43.117Z,15.37
2018-05-15T00:26:09.171Z,15.27
2018-05-15T00:28:35.381Z,15.70
2018-05-15T00:31:01.401Z,15.27
2018-05-15T00:33:27.470Z,15.47
2018-05-15T00:35:53.536Z,16.30
2018-05-15T00:38:20.091Z,17.50
2018-05-15T00:40:46.119Z,15.97
2018-05-15T00:43:12.145Z,17.23
2018-05-15T00:45:38.177Z,15.20
2018-05-15T00:48:04.406Z,16.37
2018-05-15T00:50:30.440Z,16.97
2018-05-15T00:52:57.426Z,16.73
2018-05-15T00:55:35.933Z,17.07
2018-05-15T00:58:01.953Z,15.93
2018-05-15T01:00:27.988Z,16.97
2018-05-15T01:02:54.473Z,16.77
2018-05-15T01:05:20.861Z,17.73
2018-05-15T01:07:46.885Z,17.43
2018-05-15T01:10:12.932Z,16.13
2018-05-15T01:12:38.986Z,18.00
2018-05-15T01:15:05.005Z,17.63
2018-05-15T01:17:31.017Z,20.50
2018-05-15T01:19:57.405Z,17.40
2018-05-15T01:22:23.441Z,17.90
2018-05-15T01:24:49.477Z,17.50
2018-05-15T01:27:15.534Z,17.10
2018-05-15T01:29:41.677Z,17.37
2018-05-15T01:32:07.705Z,17.93
2018-05-15T01:34:33.749Z,16.60
2018-05-15T01:37:00.437Z,17.83
2018-05-15T01:39:26.575Z,18.93
2018-05-15T01:41:52.586Z,18.37
2018-05-15T01:44:19.445Z,19.40
2018-05-15T01:46:45.762Z,18.73
2018-05-15T01:49:12.549Z,20.67
2018-05-15T01:51:38.591Z,19.73
2018-05-15T01:54:05.026Z,19.70
2018-05-15T01:56:31.073Z,19.50
2018-05-15T01:58:57.109Z,19.23
2018-05-15T02:01:23.153Z,19.93
2018-05-15T02:03:49.163Z,19.60
2018-05-15T02:06:15.190Z,19.20
2018-05-15T02:08:41.242Z,19.20
2018-05-15T02:11:08.005Z,21.13
2018-05-15T02:13:34.041Z,21.07
2018-05-15T02:16:00.379Z,19.77
2018-05-15T02:18:26.441Z,20.13
2018-05-15T02:20:52.509Z,21.03
2018-05-15T02:23:18.570Z,21.13
2018-05-15T02:25:44.900Z,22.47
2018-05-15T02:28:10.934Z,22.27
2018-05-15T02:30:37.012Z,21.10
2018-05-15T02:33:03.005Z,22.13
2018-05-15T02:35:29.045Z,21.10
2018-05-15T02:37:55.230Z,20.50
2018-05-15T02:40:21.264Z,21.80
2018-05-15T02:42:47.397Z,22.27
2018-05-15T02:45:13.449Z,21.10
2018-05-15T02:47:39.483Z,20.57
2018-05-15T02:50:05.517Z,20.83
2018-05-15T02:52:31.557Z,21.00
2018-05-15T02:54:57.586Z,21.40
2018-05-15T02:57:23.609Z,23.63
2018-05-15T02:59:49.621Z,23.07
2018-05-15T03:02:16.154Z,22.20
2018-05-15T03:04:42.205Z,21.27
2018-05-15T03:07:08.610Z,21.13
2018-05-15T03:09:34.674Z,21.90
2018-05-15T03:12:00.692Z,21.90
2018-05-15T03:14:26.736Z,20.63
2018-05-15T03:16:52.913Z,22.97
2018-05-15T03:19:18.945Z,21.37
2018-05-15T03:21:45.099Z,20.43
2018-05-15T03:24:11.121Z,21.27
2018-05-15T03:26:37.133Z,21.97
2018-05-15T03:29:03.169Z,21.83
2018-05-15T03:31:29.197Z,20.70
2018-05-15T03:33:55.229Z,20.37
2018-05-15T03:36:21.276Z,20.70
2018-05-15T03:38:47.509Z,21.03
2018-05-15T03:41:13.689Z,20.37
2018-05-15T03:43:39.842Z,22.47
2018-05-15T03:46:05.897Z,21.67
2018-05-15T03:48:31.941Z,23.90
2018-05-15T03:50:57.954Z,21.33
2018-05-15T03:53:24.029Z,23.67
2018-05-15T03:55:50.057Z,21.67
2018-05-15T03:58:16.213Z,22.97
2018-05-15T04:00:55.281Z,23.63
2018-05-15T04:03:33.647Z,23.20
2018-05-15T04:06:12.877Z,24.33
2018-05-15T04:08:39.169Z,22.67
2018-05-15T04:11:05.200Z,24.60
2018-05-15T04:13:31.149Z,24.07
2018-05-15T04:15:57.193Z,24.07
2018-05-15T04:18:23.237Z,23.20
2018-05-15T04:20:49.457Z,23.00
2018-05-15T04:23:15.505Z,25.17
2018-05-15T04:25:41.509Z,23.60
2018-05-15T04:28:07.569Z,21.27
2018-05-15T04:30:33.624Z,21.83
2018-05-15T04:32:59.666Z,19.77
2018-05-15T04:35:25.733Z,22.30
2018-05-15T04:37:51.761Z,21.73
2018-05-15T04:40:17.801Z,22.03
2018-05-15T04:42:43.812Z,21.70
2018-05-15T04:45:09.893Z,21.67
2018-05-15T04:47:36.388Z,20.00
2018-05-15T04:50:02.437Z,22.03
2018-05-15T04:52:28.457Z,22.47
2018-05-15T04:54:54.469Z,22.70
2018-05-15T04:57:20.556Z,20.97
2018-05-15T04:59:46.595Z,20.83
2018-05-15T05:02:12.612Z,19.93
2018-05-15T05:04:38.650Z,22.13
2018-05-15T05:07:04.733Z,21.87
2018-05-15T05:09:31.236Z,21.77
2018-05-15T05:11:57.272Z,22.23
2018-05-15T05:14:23.310Z,21.00
2018-05-15T05:16:49.363Z,20.60
2018-05-15T05:19:15.376Z,21.30
2018-05-15T05:21:41.452Z,21.83
2018-05-15T05:24:07.517Z,21.30
2018-05-15T05:26:33.540Z,20.17
2018-05-15T05:28:59.579Z,19.97
2018-05-15T05:31:25.657Z,19.73
2018-05-15T05:33:52.449Z,20.23
2018-05-15T05:36:18.887Z,18.30
2018-05-15T05:38:44.973Z,18.67
2018-05-15T05:41:11.046Z,18.33
2018-05-15T05:43:37.062Z,18.67
2018-05-15T05:46:03.140Z,17.60
2018-05-15T05:48:29.177Z,18.27
2018-05-15T05:50:55.216Z,17.97
2018-05-15T05:53:21.295Z,19.33
2018-05-15T05:55:47.317Z,19.13
2018-05-15T05:58:14.095Z,18.40
2018-05-15T06:00:40.568Z,18.07
2018-05-15T06:03:06.610Z,17.27
2018-05-15T06:05:32.728Z,17.73
2018-05-15T06:07:58.743Z,19.97
2018-05-15T06:10:25.136Z,16.10
2018-05-15T06:12:51.201Z,17.03
2018-05-15T06:15:17.245Z,15.57
2018-05-15T06:17:43.285Z,16.40
2018-05-15T06:20:09.297Z,18.70
2018-05-15T06:22:35.361Z,16.47
2018-05-15T06:25:01.397Z,16.90
2018-05-15T06:27:27.420Z,16.43
2018-05-15T06:29:53.948Z,19.17
2018-05-15T06:32:20.034Z,15.83
2018-05-15T06:34:46.077Z,15.47
2018-05-15T06:37:12.089Z,15.50
2018-05-15T06:39:38.117Z,15.27
2018-05-15T06:42:04.236Z,16.10
2018-05-15T06:44:30.260Z,15.63
2018-05-15T06:46:56.353Z,14.97
2018-05-15T06:49:22.385Z,14.57
2018-05-15T06:51:48.401Z,15.30
2018-05-15T06:54:14.570Z,14.00
2018-05-15T06:56:40.585Z,17.97
2018-05-15T06:59:06.657Z,12.50
2018-05-15T07:01:32.789Z,12.50
2018-05-15T07:03:59.022Z,13.33
2018-05-15T07:06:25.132Z,12.67
2018-05-15T07:08:51.473Z,16.47
2018-05-15T07:11:17.530Z,13.63
2018-05-15T07:13:43.912Z,12.27
2018-05-15T07:16:09.942Z,14.00
2018-05-15T07:18:35.993Z,11.47
2018-05-15T07:21:02.033Z,11.10
2018-05-15T07:23:28.805Z,11.13
2018-05-15T07:25:54.837Z,10.37
2018-05-15T07:28:20.881Z,13.90
2018-05-15T07:30:47.549Z,12.57
2018-05-15T07:33:13.599Z,13.37
2018-05-15T07:35:39.662Z,18.20
2018-05-15T07:38:06.453Z,10.10
2018-05-15T07:40:33.217Z,13.80
2018-05-15T07:42:59.346Z,10.30
2018-05-15T07:45:25.428Z,10.67
2018-05-15T07:47:51.449Z,12.33
2018-05-15T07:50:17.513Z,12.93
2018-05-15T07:52:43.547Z,14.90
2018-05-15T07:55:09.626Z,11.97
2018-05-15T07:57:35.647Z,11.27
2018-05-15T08:00:02.290Z,9.10
2018-05-15T08:02:28.917Z,11.13
2018-05-15T08:04:54.948Z,10.77
2018-05-15T08:07:21.014Z,10.27
2018-05-15T08:09:47.050Z,9.53
2018-05-15T08:12:13.062Z,8.73
2018-05-15T08:14:39.157Z,9.43
2018-05-15T08:17:05.223Z,8.83
2018-05-15T08:19:31.265Z,8.43
2018-05-15T08:21:57.931Z,9.63
2018-05-15T08:24:23.950Z,9.43
2018-05-15T08:26:50.249Z,9.53
2018-05-15T08:29:16.261Z,8.17
2018-05-15T08:31:42.462Z,10.67
2018-05-15T08:34:08.494Z,8.47
2018-05-15T08:36:34.514Z,9.70
2018-05-15T08:39:00.606Z,9.00
2018-05-15T08:41:26.661Z,9.97
2018-05-15T08:43:52.693Z,9.33
2018-05-15T08:46:18.761Z,8.97
2018-05-15T08:48:45.221Z,7.63
2018-05-15T08:51:11.297Z,8.07
2018-05-15T08:53:38.093Z,9.53
2018-05-15T08:56:04.136Z,9.87
2018-05-15T08:58:30.150Z,8.60
2018-05-15T09:00:56.185Z,9.27
2018-05-15T09:03:23.173Z,7.90
2018-05-15T09:05:49.189Z,6.50
2018-05-15T09:08:15.337Z,6.43
2018-05-15T09:10:41.476Z,7.60
2018-05-15T09:13:07.487Z,6.67
2018-05-15T09:15:33.569Z,6.80
2018-05-15T09:17:59.608Z,8.90
2018-05-15T09:20:25.712Z,7.00
2018-05-15T09:22:51.741Z,5.80
2018-05-15T09:25:17.753Z,7.37
2018-05-15T09:27:43.925Z,5.30
2018-05-15T09:30:10.310Z,8.47
2018-05-15T09:32:36.329Z,4.77
2018-05-15T09:35:02.363Z,8.63
2018-05-15T09:37:28.406Z,10.17
2018-05-15T09:39:54.473Z,7.30
2018-05-15T09:42:20.529Z,6.10
2018-05-15T09:44:46.557Z,9.73
2018-05-15T09:47:12.600Z,6.77
2018-05-15T09:49:38.789Z,6.70
2018-05-15T09:52:04.837Z,6.17
2018-05-15T09:54:30.913Z,6.40
2018-05-15T09:56:56.977Z,5.70
2018-05-15T09:59:23.012Z,6.10
2018-05-15T10:01:49.039Z,12.27
2018-05-15T10:04:15.113Z,8.10
2018-05-15T10:06:41.937Z,6.37
2018-05-15T10:09:08.002Z,6.30
2018-05-15T10:11:34.081Z,5.53
2018-05-15T10:14:00.097Z,9.33
2018-05-15T10:16:26.157Z,9.87
2018-05-15T10:18:52.409Z,8.43
2018-05-15T10:21:18.460Z,8.40
2018-05-15T10:23:44.538Z,8.53
2018-05-15T10:26:11.306Z,11.83
2018-05-15T10:28:37.330Z,8.80
2018-05-15T10:31:03.422Z,11.00
2018-05-15T10:33:30.602Z,8.53
2018-05-15T10:35:56.630Z,6.57
2018-05-15T10:38:22.645Z,9.40
2018-05-15T10:40:48.676Z,8.27
2018-05-15T10:43:14.757Z,7.70
2018-05-15T10:45:40.821Z,8.13
2018-05-15T10:48:06.866Z,9.47
2018-05-15T10:50:32.921Z,5.67
2018-05-15T10:52:58.971Z,8.67
2018-05-15T10:55:25.101Z,8.30
2018-05-15T10:57:51.165Z,8.67
2018-05-15T11:00:17.206Z,8.17
2018-05-15T11:02:43.233Z,8.60
2018-05-15T11:05:09.266Z,6.80
2018-05-15T11:07:35.485Z,6.30
2018-05-15T11:10:01.994Z,7.30
2018-05-15T11:12:28.034Z,8.23
2018-05-15T11:14:54.228Z,8.33
2018-05-15T11:17:20.405Z,7.33
2018-05-15T11:19:58.919Z,6.27
2018-05-15T11:22:37.671Z,10.03
2018-05-15T11:25:03.689Z,8.53
2018-05-15T11:27:29.793Z,8.57
2018-05-15T11:29:56.149Z,8.37
2018-05-15T11:32:22.206Z,7.73
2018-05-15T11:34:48.469Z,7.30
2018-05-15T11:37:15.082Z,7.20
2018-05-15T11:39:41.101Z,5.63
2018-05-15T11:42:07.158Z,5.43
2018-05-15T11:44:33.208Z,7.70
2018-05-15T11:46:59.275Z,6.90
2018-05-15T11:49:26.274Z,7.83
2018-05-15T11:51:51.966Z,9.80
2018-05-15T11:54:17.557Z,6.40
2018-05-15T11:56:43.609Z,6.83
2018-05-15T11:59:09.689Z,6.97
2018-05-15T12:01:36.136Z,7.63
2018-05-15T12:04:02.213Z,8.90
2018-05-15T12:06:28.212Z,7.33
2018-05-15T12:08:54.225Z,7.20
2018-05-15T12:11:20.649Z,6.33
2018-05-15T12:13:46.713Z,5.93
2018-05-15T12:16:12.751Z,5.67
2018-05-15T12:18:38.772Z,8.00
2018-05-15T12:21:04.838Z,7.20
2018-05-15T12:23:30.890Z,5.60
2018-05-15T12:25:56.943Z,8.53
2018-05-15T12:28:22.949Z,5.00
2018-05-15T12:30:48.988Z,7.80
2018-05-15T12:33:15.130Z,5.33
2018-05-15T12:35:41.922Z,6.97
2018-05-15T12:38:07.990Z,5.27
2018-05-15T12:40:34.017Z,5.80
2018-05-15T12:43:00.046Z,4.60
2018-05-15T12:45:26.793Z,7.67
2018-05-15T12:47:52.923Z,6.10
2018-05-15T12:50:18.954Z,5.63
2018-05-15T12:52:45.021Z,6.73
2018-05-15T12:55:11.061Z,4.47
2018-05-15T12:57:37.417Z,5.27
2018-05-15T13:00:04.541Z,5.93
2018-05-15T13:02:30.593Z,5.57
2018-05-15T13:04:56.630Z,8.90
2018-05-15T13:07:23.089Z,6.60
2018-05-15T13:09:49.110Z,5.10
2018-05-15T13:12:15.158Z,6.80
2018-05-15T13:14:41.344Z,4.77
2018-05-15T13:17:07.392Z,5.67
2018-05-15T13:19:33.417Z,6.63
2018-05-15T13:21:59.473Z,8.40
2018-05-15T13:24:25.709Z,4.97
2018-05-15T13:26:51.873Z,6.47
2018-05-15T13:29:17.882Z,7.40
2018-05-15T13:31:44.277Z,6.83
2018-05-15T13:34:10.325Z,10.37
2018-05-15T13:36:36.381Z,5.70
2018-05-15T13:39:03.317Z,5.10
2018-05-15T13:41:29.416Z,6.37
2018-05-15T13:43:55.426Z,4.87
2018-05-15T13:46:21.465Z,6.07
2018-05-15T13:48:47.965Z,4.60
2018-05-15T13:51:14.066Z,4.83
2018-05-15T13:53:40.145Z,9.43
2018-05-15T13:56:06.161Z,4.80
2018-05-15T13:58:32.237Z,8.07
2018-05-15T14:00:58.261Z,4.47
2018-05-15T14:03:24.481Z,7.73
2018-05-15T14:05:50.513Z,7.23
2018-05-15T14:08:16.561Z,7.60
2018-05-15T14:10:42.589Z,8.83
2018-05-15T14:13:08.609Z,6.93
2018-05-15T14:15:34.654Z,6.53
2018-05-15T14:18:01.097Z,4.73
2018-05-15T14:20:27.990Z,5.50
2018-05-15T14:22:54.005Z,9.00
2018-05-15T14:25:20.838Z,7.57
2018-05-15T14:27:47.642Z,9.83
2018-05-15T14:30:14.155Z,4.93
2018-05-15T14:32:40.673Z,7.03
2018-05-15T14:35:06.685Z,6.63
2018-05-15T14:37:32.794Z,7.13
2018-05-15T14:39:58.833Z,7.37
2018-05-15T14:42:37.970Z,7.10
2018-05-15T14:45:04.809Z,5.17
2018-05-15T14:47:30.825Z,7.17
2018-05-15T14:49:57.590Z,5.80
2018-05-15T14:52:23.630Z,11.53
2018-05-15T14:54:49.858Z,8.50
2018-05-15T14:57:15.998Z,6.83
2018-05-15T14:59:41.997Z,5.90
2018-05-15T15:02:08.026Z,6.50
2018-05-15T15:04:34.099Z,5.43
2018-05-15T15:07:00.106Z,6.20
2018-05-15T15:09:26.181Z,5.33
2018-05-15T15:11:52.229Z,7.53
2018-05-15T15:14:18.241Z,6.90
2018-05-15T15:16:44.333Z,5.23
2018-05-15T15:19:10.356Z,5.40
2018-05-15T15:21:36.729Z,7.30
2018-05-15T15:24:02.903Z,5.43
2018-05-15T15:26:28.913Z,8.43
2018-05-15T15:28:55.421Z,5.97
2018-05-15T15:31:21.429Z,5.63
2018-05-15T15:33:47.474Z,4.80
2018-05-15T15:36:13.522Z,6.30
2018-05-15T15:38:39.547Z,4.80
2018-05-15T15:41:05.598Z,7.40
2018-05-15T15:43:31.870Z,5.07
2018-05-15T15:45:57.945Z,7.70
2018-05-15T15:48:23.997Z,5.70
2018-05-15T15:50:50.665Z,5.90
2018-05-15T15:53:16.689Z,5.20
2018-05-15T15:55:42.789Z,5.63
2018-05-15T15:58:09.557Z,5.37
2018-05-15T16:00:35.675Z,5.87
2018-05-15T16:03:01.776Z,7.80
2018-05-15T16:05:28.021Z,5.73
2018-05-15T16:07:54.041Z,7.70
2018-05-15T16:10:20.053Z,5.13
2018-05-15T16:12:46.256Z,6.07
2018-05-15T16:15:12.344Z,5.50
2018-05-15T16:17:38.353Z,8.00
2018-05-15T16:20:04.406Z,6.70
2018-05-15T16:22:30.433Z,8.03
2018-05-15T16:24:56.765Z,6.20
2018-05-15T16:27:22.845Z,5.07
2018-05-15T16:29:48.905Z,6.53
2018-05-15T16:32:15.405Z,5.20
2018-05-15T16:34:41.430Z,4.87
2018-05-15T16:37:07.453Z,4.67
2018-05-15T16:39:33.503Z,9.23
2018-05-15T16:41:59.525Z,6.67
2018-05-15T16:44:25.639Z,5.27
2018-05-15T16:46:51.674Z,6.70
2018-05-15T16:49:17.725Z,6.80
2018-05-15T16:51:43.777Z,4.90
2018-05-15T16:54:09.773Z,6.00
2018-05-15T16:56:35.953Z,5.80
2018-05-15T16:59:01.985Z,8.53
2018-05-15T17:01:28.718Z,6.03
2018-05-15T17:03:55.465Z,10.60
2018-05-15T17:06:22.570Z,6.97
2018-05-15T17:08:48.669Z,5.03
2018-05-15T17:11:14.686Z,7.60
2018-05-15T17:13:40.821Z,7.87
2018-05-15T17:16:06.805Z,5.23
2018-05-15T17:18:32.905Z,6.10
2018-05-15T17:20:58.914Z,9.47
2018-05-15T17:23:25.786Z,5.67
2018-05-15T17:25:52.567Z,5.67
2018-05-15T17:28:18.625Z,5.70
2018-05-15T17:30:44.745Z,7.83
2018-05-15T17:33:12.021Z,7.13
2018-05-15T17:35:38.073Z,7.93
2018-05-15T17:38:04.327Z,6.10
2018-05-15T17:40:30.433Z,5.20
2018-05-15T17:42:56.465Z,6.63
2018-05-15T17:45:22.473Z,7.87
2018-05-15T17:47:48.528Z,6.17
2018-05-15T17:50:14.561Z,7.30
2018-05-15T17:52:40.652Z,6.33
2018-05-15T17:55:07.017Z,5.57
2018-05-15T17:57:33.369Z,4.67
2018-05-15T17:59:59.451Z,5.13
2018-05-15T18:02:25.487Z,8.20
2018-05-15T18:04:51.590Z,8.57
2018-05-15T18:07:17.753Z,5.90
2018-05-15T18:09:43.781Z,6.00
2018-05-15T18:12:09.817Z,5.53
2018-05-15T18:14:35.910Z,4.93
2018-05-15T18:17:02.010Z,5.37
2018-05-15T18:19:28.793Z,6.03
2018-05-15T18:21:54.835Z,6.67
2018-05-15T18:24:20.840Z,5.23
2018-05-15T18:26:46.854Z,6.07
2018-05-15T18:29:13.332Z,6.43
2018-05-15T18:31:39.369Z,4.97
2018-05-15T18:34:06.002Z,4.97
2018-05-15T18:36:32.021Z,5.23
2018-05-15T18:38:58.821Z,6.33
2018-05-15T18:41:24.904Z,5.27
2018-05-15T18:43:51.025Z,6.57
2018-05-15T18:46:17.068Z,7.53
2018-05-15T18:48:43.101Z,6.93
2018-05-15T18:51:09.121Z,5.20
2018-05-15T18:53:35.169Z,8.00
2018-05-15T18:56:01.238Z,6.53
2018-05-15T18:58:27.281Z,5.93
2018-05-15T19:00:53.320Z,5.20
2018-05-15T19:03:19.345Z,6.00
2018-05-15T19:05:45.381Z,5.43
2018-05-15T19:08:11.445Z,6.73
2018-05-15T19:10:37.461Z,7.03
2018-05-15T19:13:03.505Z,7.60
2018-05-15T19:15:29.525Z,6.60
2018-05-15T19:17:55.552Z,6.20
2018-05-15T19:20:21.643Z,8.60
2018-05-15T19:22:47.685Z,7.83
2018-05-15T19:25:13.721Z,6.73
2018-05-15T19:27:39.754Z,6.10
2018-05-15T19:30:06.317Z,9.00
2018-05-15T19:32:37.425Z,6.13
2018-05-15T19:35:06.689Z,7.20
2018-05-15T19:37:32.773Z,8.37
2018-05-15T19:39:58.885Z,7.80
2018-05-15T19:42:24.922Z,6.60
2018-05-15T19:44:51.823Z,8.90
2018-05-15T19:47:17.816Z,8.43
2018-05-15T19:49:43.829Z,10.17
2018-05-15T19:52:09.863Z,13.17
2018-05-15T19:54:35.864Z,12.77
2018-05-15T19:57:02.029Z,9.97
2018-05-15T19:59:28.477Z,8.03
2018-05-15T20:01:54.593Z,9.17
2018-05-15T20:04:20.545Z,10.87
2018-05-15T20:06:46.565Z,13.27
2018-05-15T20:09:12.738Z,8.23
2018-05-15T20:11:38.906Z,10.17
2018-05-15T20:14:05.433Z,12.20
2018-05-15T20:16:31.445Z,10.00
2018-05-15T20:18:57.577Z,10.13
2018-05-15T20:21:23.849Z,10.43
2018-05-15T20:23:49.952Z,10.87
2018-05-15T20:26:15.930Z,9.53
2018-05-15T20:28:42.097Z,8.90
2018-05-15T20:31:08.101Z,11.37
2018-05-15T20:33:34.158Z,10.20
2018-05-15T20:36:00.279Z,11.50
2018-05-15T20:38:26.302Z,12.47
2018-05-15T20:40:52.390Z,11.70
2018-05-15T20:43:18.417Z,9.67
2018-05-15T20:45:44.545Z,13.70
2018-05-15T20:48:10.609Z,13.53
2018-05-15T20:50:36.650Z,12.97
2018-05-15T20:53:02.730Z,9.77
2018-05-15T20:55:28.741Z,11.47
2018-05-15T20:57:54.765Z,11.10
2018-05-15T21:00:20.849Z,10.20
2018-05-15T21:02:46.885Z,11.17
2018-05-15T21:05:13.062Z,11.40
2018-05-15T21:07:39.086Z,10.10
2018-05-15T21:10:05.105Z,10.83
2018-05-15T21:12:31.122Z,11.37
2018-05-15T21:14:57.189Z,11.40
2018-05-15T21:17:23.317Z,10.77
2018-05-15T21:19:49.329Z,12.37
2018-05-15T21:22:15.329Z,9.73
2018-05-15T21:24:41.674Z,10.80
2018-05-15T21:27:07.699Z,14.03
2018-05-15T21:29:33.899Z,13.23
2018-05-15T21:31:59.905Z,12.33
2018-05-15T21:34:26.726Z,12.87
2018-05-15T21:36:53.000Z,12.00
2018-05-15T21:39:18.913Z,12.90
2018-05-15T21:41:44.949Z,13.83
2018-05-15T21:44:10.965Z,11.10
2018-05-15T21:46:37.091Z,11.30
2018-05-15T21:49:03.156Z,10.87
2018-05-15T21:51:29.171Z,14.37
2018-05-15T21:53:55.248Z,12.43
2018-05-15T21:56:21.293Z,12.77
2018-05-15T21:58:47.306Z,12.90
2018-05-15T22:01:13.453Z,12.63
2018-05-15T22:03:39.486Z,11.40
2018-05-15T22:06:05.633Z,10.77
2018-05-15T22:08:31.661Z,14.87
2018-05-15T22:10:59.089Z,11.57
2018-05-15T22:13:37.297Z,11.63
2018-05-15T22:16:15.660Z,13.77
2018-05-15T22:18:54.047Z,14.40
2018-05-15T22:21:32.225Z,14.73
2018-05-15T22:23:59.460Z,12.43
2018-05-15T22:26:25.445Z,12.60
2018-05-15T22:28:51.526Z,13.57
2018-05-15T22:31:17.684Z,12.00
2018-05-15T22:33:43.729Z,14.70
2018-05-15T22:36:10.022Z,13.73
2018-05-15T22:38:36.353Z,13.27
2018-05-15T22:41:02.401Z,12.37
2018-05-15T22:43:28.421Z,14.07
2018-05-15T22:45:54.453Z,16.90
2018-05-15T22:48:20.484Z,10.67
2018-05-15T22:50:46.492Z,12.47
2018-05-15T22:53:13.281Z,12.80
2018-05-15T22:55:39.501Z,10.33
2018-05-15T22:58:05.549Z,16.13
2018-05-15T23:00:31.606Z,14.83
2018-05-15T23:02:57.637Z,12.70
2018-05-15T23:05:24.385Z,11.83
2018-05-15T23:07:50.453Z,16.20
2018-05-15T23:10:16.531Z,14.60
2018-05-15T23:12:42.553Z,11.00
2018-05-15T23:15:08.579Z,10.57
2018-05-15T23:17:34.596Z,11.00
2018-05-15T23:20:00.637Z,15.30
2018-05-15T23:22:39.929Z,12.47
2018-05-15T23:25:05.962Z,12.40
2018-05-15T23:27:31.989Z,12.97
2018-05-15T23:29:58.073Z,10.80
2018-05-15T23:32:24.681Z,12.53
2018-05-15T23:34:50.863Z,13.17
2018-05-15T23:37:17.185Z,12.23
2018-05-15T23:39:43.204Z,10.93
2018-05-15T23:42:09.969Z,13.77
2018-05-15T23:44:36.020Z,14.17
2018-05-15T23:47:02.101Z,14.30
2018-05-15T23:49:28.129Z,14.23
2018-05-15T23:51:54.162Z,13.40
2018-05-15T23:54:20.165Z,11.10
2018-05-15T23:56:47.305Z,14.67
2018-05-15T23:59:13.366Z,12.00
